Senhora do Porto, Brazil
Current Conditions -  °F | °C
As of 7:00 AM on Monday 22 Dec 2014 (Local Time) from SBLS Reporting Station
Light Rain Light Rain  
Wind Chill: 68°   Ceiling: 500
Heat Index: 68°   Visibility: 1.5mi
Dew Point: 66°   Wind: 0mph
Humidity: 94%   Direction: NA
Pressure: 30.06"   Gusts: NA
Location:  18.89°S, 43.08°W
Report Text: SBLS 220900Z 00000KT 2500 -RA BKN005 SCT015 BKN070 20/19 Q1018
Loading
Personal Weather Stations






























Interactive Weather Map New forecast layout! Learn more

10-Day Weather Forecast

Advertisements
Track Severe Weather on mobile